首页
METAR-TAF:

METAR-TAF

机场 :

基什岛, 伊朗

纬度: 26-31-36N, 经度: 053-58-54E, 海拔: 30米

当前天气观测

该预报发布于59分钟前的09:00 UTC
风速14节,风向
温度 21°C
湿度 46%
气压 1018 hPa
能见度10公里或以上
少量云层高于3500英尺

METAR: OIBK 180900Z 09014KT 9999 FEW035 21/09 Q1018 NOSIG

时间: 13:29 (09:59 UTC)

预报

该预报发布于4小时和29分钟前的05:30 UTC
预报有效从18日的 06点(UTC)到 19日的 12点(UTC)
风速8节,风向
能見度: 8000
短暂存在
从 18日的 06点(UTC)到 18日的 16点(UTC)
风速16节,风向
短暂存在
从 18日的 21点(UTC)到 19日的 06点(UTC)
能見度: 4000

TAF: OIBK 180530Z 1806/1912 09008KT 8000 NSC TEMPO 1806/1816 10016KT TEMPO 1821/1906 4000 BR/HZ

超过4000个机场的气象观测和天气预报(METAR&TAF报告)。

可查询的气象台以黄色和红色小点在地图上表示。

将鼠标移到小点上方,可查看气象台名称。

然后点击查看天气观测和预报。

如需切换地图:点击带黑十字的绿色按钮放大地图;点击带横线的绿色按钮缩小地图;或者点击绿色箭头查看邻近地区的地图。


METAR-TAF: